Time;durP1;ratioP1;P1;durP2;ratioP2;P2;SDS_P1;SDS_P2;PMS_P1;PMS_P2;Temp;Humidity;BMP_temperature;BMP_pressure;BME280_temperature;BME280_humidity;BME280_pressure;Samples;Min_cycle;Max_cycle;Signal;HPM_P1;HPM_P2
2022/01/31 00:00:13;;;;;;;18.47;7.30;;;;;;;;;;2084918;28;20168;-61
2022/01/31 00:01:14;;;;;;;19.10;7.80;;;;;;;;;;2084688;28;20194;-60
2022/01/31 00:02:15;;;;;;;22.17;7.57;;;;;;;;;;2083999;28;20203;-60
2022/01/31 00:03:15;;;;;;;26.10;8.47;;;;;;;;;;2083785;28;20285;-61
2022/01/31 00:04:15;;;;;;;15.37;6.90;;;;;;;;;;2084826;28;20191;-61
2022/01/31 00:05:16;;;;;;;18.43;6.73;;;;;;;;;;2087555;28;20266;-58
2022/01/31 00:06:16;;;;;;;15.60;6.60;;;;;;;;;;2083905;28;20188;-57
2022/01/31 00:07:16;;;;;;;35.23;8.37;;;;;;;;;;2082825;28;20653;-60
2022/01/31 00:08:22;;;;;;;20.33;7.20;;;;;;;;;;2080946;28;20214;-60
2022/01/31 00:09:23;;;;;;;26.47;8.03;;;;;;;;;;2085555;28;20648;-60
2022/01/31 00:10:31;;;;;;;21.40;7.23;;;;;;;;;;2084645;28;20206;-60
2022/01/31 00:11:33;;;;;;;20.40;6.53;;;;;;;;;;2086987;28;20813;-58
2022/01/31 00:12:44;;;;;;;19.47;6.80;;;;;;;;;;2085388;28;20183;-60
2022/01/31 00:13:55;;;;;;;24.67;6.90;;;;;;;;;;2087456;28;20168;-59
2022/01/31 00:15:01;;;;;;;20.37;7.03;;;;;;;;;;2080122;28;20650;-60
2022/01/31 00:16:02;;;;;;;17.03;7.00;;;;;;;;;;2085895;28;20249;-59
2022/01/31 00:17:03;;;;;;;18.53;7.03;;;;;;;;;;2088345;28;20238;-59
2022/01/31 00:18:04;;;;;;;20.13;7.07;;;;;;;;;;2088626;28;20176;-56
2022/01/31 00:19:04;;;;;;;21.43;9.30;;;;;;;;;;2090039;28;20697;-60
2022/01/31 00:20:04;;;;;;;13.03;6.43;;;;;;;;;;2087426;28;20192;-59
2022/01/31 00:21:04;;;;;;;22.73;7.87;;;;;;;;;;2086756;28;20176;-60
2022/01/31 00:22:09;;;;;;;21.73;7.50;;;;;;;;;;2082243;28;20262;-59
2022/01/31 00:23:09;;;;;;;17.07;7.03;;;;;;;;;;2085565;28;20232;-59
2022/01/31 00:24:10;;;;;;;16.27;7.33;;;;;;;;;;2089103;28;20188;-62
2022/01/31 00:25:11;;;;;;;19.73;6.97;;;;;;;;;;2089717;28;20720;-60
2022/01/31 00:26:11;;;;;;;18.73;7.63;;;;;;;;;;2086797;28;20250;-60
2022/01/31 00:27:11;;;;;;;14.77;7.30;;;;;;;;;;2089247;28;20180;-58
2022/01/31 00:28:14;;;;;;;20.30;7.93;;;;;;;;;;2080729;28;20184;-59
2022/01/31 00:29:14;;;;;;;20.33;7.90;;;;;;;;;;2072849;28;20243;-61
2022/01/31 00:30:15;;;;;;;25.37;7.93;;;;;;;;;;2077732;28;20222;-60
2022/01/31 00:31:15;;;;;;;23.20;8.03;;;;;;;;;;2085781;28;20181;-60
2022/01/31 00:32:15;;;;;;;20.67;8.33;;;;;;;;;;2086264;28;20682;-59
2022/01/31 00:33:15;;;;;;;16.07;7.77;;;;;;;;;;2084970;28;20675;-60
2022/01/31 00:34:16;;;;;;;19.97;9.30;;;;;;;;;;2082792;28;20706;-61
2022/01/31 00:35:16;;;;;;;26.53;9.30;;;;;;;;;;2081603;28;20860;-59
2022/01/31 00:37:17;;;;;;;21.97;8.80;;;;;;;;;;2068914;28;20404;-54
2022/01/31 00:38:18;;;;;;;15.30;8.03;;;;;;;;;;2080088;28;20234;-59
2022/01/31 00:39:18;;;;;;;18.43;7.97;;;;;;;;;;2069290;28;20173;-53
2022/01/31 00:40:19;;;;;;;19.73;8.73;;;;;;;;;;2080616;28;20251;-59
2022/01/31 00:41:21;;;;;;;21.40;8.37;;;;;;;;;;2074583;28;20777;-54
2022/01/31 00:42:22;;;;;;;19.43;8.43;;;;;;;;;;2078445;28;20175;-58
2022/01/31 00:43:23;;;;;;;17.30;8.63;;;;;;;;;;2080570;28;20203;-53
2022/01/31 00:44:29;;;;;;;16.90;8.53;;;;;;;;;;2078478;28;20259;-56
2022/01/31 00:45:32;;;;;;;23.03;8.37;;;;;;;;;;2081581;28;20188;-56
2022/01/31 00:46:41;;;;;;;19.87;8.53;;;;;;;;;;2081738;28;20191;-52
2022/01/31 00:47:45;;;;;;;19.23;8.80;;;;;;;;;;2073487;28;20552;-51
2022/01/31 00:48:46;;;;;;;19.60;8.20;;;;;;;;;;2073928;28;20647;-58
2022/01/31 00:50:02;;;;;;;23.23;9.50;;;;;;;;;;2088905;28;20233;-56
2022/01/31 00:51:03;;;;;;;17.83;8.53;;;;;;;;;;2081193;28;20599;-56
2022/01/31 00:52:04;;;;;;;22.07;9.40;;;;;;;;;;2090015;28;20216;-57
2022/01/31 00:53:04;;;;;;;21.60;9.10;;;;;;;;;;2089316;28;20238;-59
2022/01/31 00:54:04;;;;;;;19.73;9.00;;;;;;;;;;2088267;28;20683;-59
2022/01/31 00:55:05;;;;;;;22.37;9.20;;;;;;;;;;2089958;28;20171;-57
2022/01/31 00:56:06;;;;;;;22.53;9.17;;;;;;;;;;2087433;28;20178;-57
2022/01/31 00:57:06;;;;;;;22.00;8.77;;;;;;;;;;2089631;28;20218;-56
2022/01/31 00:58:06;;;;;;;22.33;8.77;;;;;;;;;;2089859;28;20720;-59
2022/01/31 00:59:06;;;;;;;20.20;9.00;;;;;;;;;;2089353;28;20251;-59
2022/01/31 01:00:07;;;;;;;25.97;9.13;;;;;;;;;;2078318;28;20185;-57
2022/01/31 01:01:08;;;;;;;22.53;9.13;;;;;;;;;;2084645;28;20164;-58
2022/01/31 01:02:08;;;;;;;13.60;8.57;;;;;;;;;;2089377;28;20746;-57
2022/01/31 01:03:09;;;;;;;19.83;7.97;;;;;;;;;;2084548;28;20226;-54
2022/01/31 01:04:09;;;;;;;23.80;9.57;;;;;;;;;;2085203;28;20194;-61
2022/01/31 01:05:09;;;;;;;16.50;9.10;;;;;;;;;;2085344;28;20181;-56
2022/01/31 01:06:10;;;;;;;18.70;8.50;;;;;;;;;;2082259;28;20412;-59
2022/01/31 01:07:11;;;;;;;17.37;8.80;;;;;;;;;;2087238;28;20192;-57
2022/01/31 01:08:11;;;;;;;25.90;8.87;;;;;;;;;;2093102;28;20194;-58
2022/01/31 01:09:12;;;;;;;14.37;8.63;;;;;;;;;;2095170;28;20167;-58
2022/01/31 01:10:15;;;;;;;19.00;9.27;;;;;;;;;;2089664;28;20241;-56
2022/01/31 01:11:15;;;;;;;21.83;9.27;;;;;;;;;;2091014;28;20179;-57
2022/01/31 01:12:17;;;;;;;21.73;8.67;;;;;;;;;;2088087;28;20229;-55
2022/01/31 01:13:17;;;;;;;24.60;9.73;;;;;;;;;;2090277;28;20183;-57
2022/01/31 01:14:17;;;;;;;20.63;8.97;;;;;;;;;;2073440;28;20165;-54
2022/01/31 01:15:18;;;;;;;26.40;9.20;;;;;;;;;;2073747;28;20673;-56
2022/01/31 01:16:18;;;;;;;18.57;8.93;;;;;;;;;;2084578;28;20172;-55
2022/01/31 01:17:18;;;;;;;17.20;8.50;;;;;;;;;;2086463;28;20167;-55
2022/01/31 01:18:19;;;;;;;20.00;8.70;;;;;;;;;;2091375;28;20208;-55
2022/01/31 01:19:19;;;;;;;23.07;8.60;;;;;;;;;;2099380;28;20166;-50
2022/01/31 01:20:20;;;;;;;24.77;8.90;;;;;;;;;;2101420;28;20577;-54
2022/01/31 01:21:20;;;;;;;14.53;8.40;;;;;;;;;;2093143;28;20199;-57
2022/01/31 01:22:20;;;;;;;19.63;9.10;;;;;;;;;;2091671;28;20238;-51
2022/01/31 01:23:21;;;;;;;14.10;8.13;;;;;;;;;;2094346;28;20257;-58
2022/01/31 01:24:21;;;;;;;19.47;8.40;;;;;;;;;;2092738;28;20183;-59
2022/01/31 01:25:22;;;;;;;16.80;8.77;;;;;;;;;;2095207;28;20255;-57
2022/01/31 01:26:22;;;;;;;21.90;8.30;;;;;;;;;;2085338;28;20180;-59
2022/01/31 01:27:24;;;;;;;22.10;9.33;;;;;;;;;;2084651;28;20174;-58
2022/01/31 01:28:26;;;;;;;13.23;8.17;;;;;;;;;;2085117;28;20207;-58
2022/01/31 01:29:27;;;;;;;17.23;7.77;;;;;;;;;;2090211;28;20160;-52
2022/01/31 01:30:27;;;;;;;20.20;8.43;;;;;;;;;;2087081;28;20662;-54
2022/01/31 01:31:28;;;;;;;22.57;9.03;;;;;;;;;;2083636;28;20184;-58
2022/01/31 01:32:32;;;;;;;17.93;7.60;;;;;;;;;;2086902;28;20164;-55
2022/01/31 01:33:38;;;;;;;16.90;8.27;;;;;;;;;;2091529;28;20187;-61
2022/01/31 01:34:39;;;;;;;16.40;7.17;;;;;;;;;;2087885;28;20916;-58
2022/01/31 01:35:39;;;;;;;19.77;8.37;;;;;;;;;;2087486;28;20168;-58
2022/01/31 01:36:42;;;;;;;16.93;7.83;;;;;;;;;;2089102;28;20581;-58
2022/01/31 01:37:42;;;;;;;17.40;8.33;;;;;;;;;;2082448;28;20539;-56
2022/01/31 01:38:42;;;;;;;15.10;8.10;;;;;;;;;;2098161;28;20178;-55
2022/01/31 01:39:45;;;;;;;18.43;7.23;;;;;;;;;;2081436;28;20223;-57
2022/01/31 01:40:46;;;;;;;23.83;8.20;;;;;;;;;;2082372;28;20172;-54
2022/01/31 01:41:49;;;;;;;11.30;7.70;;;;;;;;;;2086895;28;20184;-53
2022/01/31 01:42:49;;;;;;;18.00;8.30;;;;;;;;;;2095807;28;20183;-59
2022/01/31 01:43:49;;;;;;;16.03;7.27;;;;;;;;;;2086673;28;20208;-56
2022/01/31 01:44:50;;;;;;;16.43;7.20;;;;;;;;;;2079717;28;20640;-58
2022/01/31 01:45:53;;;;;;;16.87;8.10;;;;;;;;;;2080606;28;20180;-52
2022/01/31 01:46:54;;;;;;;16.37;7.40;;;;;;;;;;2080923;28;20196;-57
2022/01/31 01:47:55;;;;;;;14.47;8.17;;;;;;;;;;2088745;28;20195;-51
2022/01/31 01:48:55;;;;;;;14.33;7.60;;;;;;;;;;2081806;28;20172;-58
2022/01/31 01:49:56;;;;;;;13.70;7.20;;;;;;;;;;2081144;28;20286;-56
2022/01/31 01:50:59;;;;;;;13.83;7.93;;;;;;;;;;2081137;28;20690;-57
2022/01/31 01:52:00;;;;;;;15.43;7.70;;;;;;;;;;2080879;28;20176;-57
2022/01/31 01:53:01;;;;;;;13.57;7.97;;;;;;;;;;2077558;28;20307;-55
2022/01/31 01:54:01;;;;;;;19.33;8.03;;;;;;;;;;2083933;28;20230;-57
2022/01/31 01:55:02;;;;;;;18.17;8.77;;;;;;;;;;2081515;28;20176;-54
2022/01/31 01:56:04;;;;;;;20.67;8.60;;;;;;;;;;2083937;28;20267;-58
2022/01/31 01:57:07;;;;;;;14.77;7.40;;;;;;;;;;2075281;28;20211;-57
2022/01/31 01:58:15;;;;;;;14.53;7.80;;;;;;;;;;2068804;28;20259;-58
2022/01/31 01:59:15;;;;;;;14.43;7.40;;;;;;;;;;2080883;28;20164;-55
2022/01/31 02:00:48;;;;;;;13.40;7.20;;;;;;;;;;2087654;28;20171;-58
2022/01/31 02:01:49;;;;;;;14.83;7.83;;;;;;;;;;2083166;28;20172;-54
2022/01/31 02:02:49;;;;;;;12.57;7.43;;;;;;;;;;2089598;28;20172;-56
2022/01/31 02:03:54;;;;;;;18.20;7.67;;;;;;;;;;2076748;28;20165;-57
2022/01/31 02:05:00;;;;;;;14.63;7.63;;;;;;;;;;2082275;28;20641;-52
2022/01/31 02:06:07;;;;;;;17.40;8.47;;;;;;;;;;2084426;28;20168;-57
2022/01/31 02:07:09;;;;;;;16.83;7.23;;;;;;;;;;2085918;28;20215;-58
2022/01/31 02:08:11;;;;;;;16.50;7.47;;;;;;;;;;2091680;28;20179;-53
2022/01/31 02:09:11;;;;;;;11.57;7.47;;;;;;;;;;2085177;28;20176;-55
2022/01/31 02:10:12;;;;;;;18.10;7.43;;;;;;;;;;2084492;28;20244;-58
2022/01/31 02:11:22;;;;;;;15.23;7.57;;;;;;;;;;2084461;28;20237;-58
2022/01/31 02:12:36;;;;;;;16.77;7.50;;;;;;;;;;2086085;28;20490;-53
2022/01/31 02:13:37;;;;;;;12.73;7.27;;;;;;;;;;2089224;28;20258;-52
2022/01/31 02:14:57;;;;;;;16.07;7.03;;;;;;;;;;2083363;28;20235;-53
2022/01/31 02:16:33;;;;;;;11.17;6.67;;;;;;;;;;2082346;28;20180;-58
2022/01/31 02:17:46;;;;;;;15.23;7.10;;;;;;;;;;2080811;28;20168;-56
2022/01/31 02:18:54;;;;;;;12.20;7.33;;;;;;;;;;2080048;28;20207;-57
2022/01/31 02:20:12;;;;;;;18.03;7.70;;;;;;;;;;2088455;28;20170;-56
2022/01/31 02:21:13;;;;;;;11.93;6.83;;;;;;;;;;2090486;28;20198;-53
2022/01/31 02:22:13;;;;;;;16.13;7.53;;;;;;;;;;2091746;28;20199;-56
2022/01/31 02:23:36;;;;;;;9.80;6.53;;;;;;;;;;2084339;28;20195;-56
2022/01/31 02:24:56;;;;;;;17.23;7.63;;;;;;;;;;2085238;28;20567;-57
2022/01/31 02:26:22;;;;;;;10.57;6.67;;;;;;;;;;2088163;28;20213;-55
2022/01/31 02:27:36;;;;;;;12.03;7.13;;;;;;;;;;2089657;28;20724;-57
2022/01/31 02:28:40;;;;;;;14.67;7.43;;;;;;;;;;2080379;28;20203;-55
2022/01/31 02:29:40;;;;;;;14.43;7.17;;;;;;;;;;2078617;28;20617;-56
2022/01/31 02:30:40;;;;;;;14.03;8.00;;;;;;;;;;2081090;28;20264;-58
2022/01/31 02:31:42;;;;;;;12.60;7.67;;;;;;;;;;2073519;28;20201;-60
2022/01/31 02:32:43;;;;;;;17.50;6.87;;;;;;;;;;2076945;28;20165;-58
2022/01/31 02:33:43;;;;;;;13.57;7.00;;;;;;;;;;2082995;28;20230;-57
2022/01/31 02:34:44;;;;;;;13.27;6.80;;;;;;;;;;2080766;28;20257;-56
2022/01/31 02:35:47;;;;;;;16.03;7.30;;;;;;;;;;2080463;28;20269;-58
2022/01/31 02:36:48;;;;;;;12.77;6.60;;;;;;;;;;2065362;28;20232;-55
2022/01/31 02:37:48;;;;;;;14.93;7.50;;;;;;;;;;2068373;28;20181;-56
2022/01/31 02:39:00;;;;;;;12.70;6.70;;;;;;;;;;2086969;28;20175;-55
2022/01/31 02:40:00;;;;;;;13.97;7.40;;;;;;;;;;2077412;28;20184;-58
2022/01/31 02:41:01;;;;;;;15.73;7.70;;;;;;;;;;2086432;28;20275;-53
2022/01/31 02:42:01;;;;;;;12.63;8.13;;;;;;;;;;2076929;28;20173;-53
2022/01/31 02:43:02;;;;;;;11.87;7.87;;;;;;;;;;2072263;28;20185;-54
2022/01/31 02:44:09;;;;;;;11.83;7.40;;;;;;;;;;2084447;28;20184;-57
2022/01/31 02:45:11;;;;;;;12.20;7.47;;;;;;;;;;2085487;28;20260;-58
2022/01/31 02:46:11;;;;;;;15.27;8.80;;;;;;;;;;2081312;28;20246;-55
2022/01/31 02:47:21;;;;;;;17.57;8.47;;;;;;;;;;2090125;28;20195;-57
2022/01/31 02:48:24;;;;;;;22.33;8.67;;;;;;;;;;2095102;28;20216;-56
2022/01/31 02:49:32;;;;;;;17.43;9.13;;;;;;;;;;2087481;28;20176;-51
2022/01/31 02:50:33;;;;;;;19.50;9.50;;;;;;;;;;2087573;28;20221;-51
2022/01/31 02:51:33;;;;;;;17.40;9.03;;;;;;;;;;2089040;28;20179;-56
2022/01/31 02:52:36;;;;;;;18.97;8.87;;;;;;;;;;2083531;28;20167;-56
2022/01/31 02:53:41;;;;;;;17.07;9.07;;;;;;;;;;2080004;28;20595;-56
2022/01/31 02:54:41;;;;;;;16.97;9.37;;;;;;;;;;2081577;28;20259;-54
2022/01/31 02:55:43;;;;;;;19.60;9.27;;;;;;;;;;2079934;28;20172;-57
2022/01/31 02:56:44;;;;;;;20.03;10.07;;;;;;;;;;2080581;28;20230;-53
2022/01/31 02:57:44;;;;;;;21.67;10.50;;;;;;;;;;2079568;28;20571;-54
2022/01/31 02:58:45;;;;;;;21.50;10.57;;;;;;;;;;2084349;28;20164;-59
2022/01/31 02:59:46;;;;;;;18.17;10.13;;;;;;;;;;2085399;28;20792;-59
2022/01/31 03:00:47;;;;;;;18.83;9.33;;;;;;;;;;2088084;28;20245;-56
2022/01/31 03:01:54;;;;;;;18.33;10.47;;;;;;;;;;2089462;28;20251;-58
2022/01/31 03:02:54;;;;;;;14.93;10.13;;;;;;;;;;2088516;28;20283;-57
2022/01/31 03:03:55;;;;;;;19.47;10.47;;;;;;;;;;2096742;28;20176;-60
2022/01/31 03:04:55;;;;;;;19.93;10.27;;;;;;;;;;2090256;28;20254;-58
2022/01/31 03:05:56;;;;;;;23.27;11.00;;;;;;;;;;2095858;28;20198;-56
2022/01/31 03:06:57;;;;;;;22.50;11.33;;;;;;;;;;2082799;28;20203;-57
2022/01/31 03:07:59;;;;;;;18.53;10.43;;;;;;;;;;2080873;28;20199;-59
2022/01/31 03:08:59;;;;;;;18.63;11.40;;;;;;;;;;2091075;28;20199;-59
2022/01/31 03:10:08;;;;;;;18.10;10.27;;;;;;;;;;2090715;28;20287;-58
2022/01/31 03:11:09;;;;;;;16.90;11.43;;;;;;;;;;2087562;28;20222;-58
2022/01/31 03:12:32;;;;;;;22.07;11.07;;;;;;;;;;2084187;28;20261;-57
2022/01/31 03:13:35;;;;;;;21.63;11.37;;;;;;;;;;2088421;28;20164;-58
2022/01/31 03:14:36;;;;;;;20.73;11.27;;;;;;;;;;2083088;28;20264;-58
2022/01/31 03:15:40;;;;;;;16.80;11.20;;;;;;;;;;2089298;28;20166;-58
2022/01/31 03:17:18;;;;;;;23.30;11.80;;;;;;;;;;2092843;28;20175;-55
2022/01/31 03:18:19;;;;;;;27.20;11.80;;;;;;;;;;2090069;28;20186;-56
2022/01/31 03:19:20;;;;;;;28.07;13.13;;;;;;;;;;2082056;28;20180;-58
2022/01/31 03:20:25;;;;;;;23.00;13.50;;;;;;;;;;2088783;28;20233;-56
2022/01/31 03:21:25;;;;;;;18.50;11.37;;;;;;;;;;2087088;28;20156;-59
2022/01/31 03:22:25;;;;;;;21.17;12.10;;;;;;;;;;2080701;28;20230;-57
2022/01/31 03:23:26;;;;;;;20.20;12.83;;;;;;;;;;2085503;28;20175;-56
2022/01/31 03:24:26;;;;;;;24.00;13.10;;;;;;;;;;2079940;28;20196;-57
2022/01/31 03:25:26;;;;;;;20.10;11.83;;;;;;;;;;2087368;28;20218;-56
2022/01/31 03:26:27;;;;;;;24.33;12.67;;;;;;;;;;2087274;28;20191;-58
2022/01/31 03:27:27;;;;;;;18.27;12.43;;;;;;;;;;2089706;28;20209;-57
2022/01/31 03:28:28;;;;;;;22.13;12.70;;;;;;;;;;2084890;28;20219;-58
2022/01/31 03:29:29;;;;;;;17.57;12.40;;;;;;;;;;2084700;28;20171;-58
2022/01/31 03:30:29;;;;;;;18.07;12.13;;;;;;;;;;2091034;28;20664;-52
2022/01/31 03:31:30;;;;;;;27.70;12.83;;;;;;;;;;2093961;28;20615;-59
2022/01/31 03:32:30;;;;;;;20.87;12.63;;;;;;;;;;2082242;28;20573;-56
2022/01/31 03:33:32;;;;;;;20.07;12.50;;;;;;;;;;2093786;28;20671;-56
2022/01/31 03:34:32;;;;;;;23.70;13.37;;;;;;;;;;2089405;28;20203;-53
2022/01/31 03:35:32;;;;;;;24.00;13.50;;;;;;;;;;2085987;28;20636;-55
2022/01/31 03:36:32;;;;;;;22.27;13.70;;;;;;;;;;2086731;28;20265;-53
2022/01/31 03:37:34;;;;;;;21.93;13.33;;;;;;;;;;2076374;28;20173;-57
2022/01/31 03:38:40;;;;;;;20.67;12.90;;;;;;;;;;2087216;28;20317;-52
2022/01/31 03:39:40;;;;;;;20.67;11.83;;;;;;;;;;2087517;28;20217;-56
2022/01/31 03:40:41;;;;;;;21.53;13.70;;;;;;;;;;2080428;28;20258;-58
2022/01/31 03:41:41;;;;;;;17.53;14.13;;;;;;;;;;2080002;28;20263;-58
2022/01/31 03:42:41;;;;;;;17.57;12.83;;;;;;;;;;2083428;28;20231;-55
2022/01/31 03:43:42;;;;;;;21.00;12.17;;;;;;;;;;2088689;28;20318;-54
2022/01/31 03:44:43;;;;;;;16.17;13.30;;;;;;;;;;2080320;28;20551;-55
2022/01/31 03:45:44;;;;;;;18.20;12.63;;;;;;;;;;2080520;28;20398;-53
2022/01/31 03:46:55;;;;;;;20.70;12.90;;;;;;;;;;2073672;28;20236;-57
2022/01/31 03:47:57;;;;;;;16.40;12.00;;;;;;;;;;2082786;28;20516;-52
2022/01/31 03:48:57;;;;;;;17.67;11.53;;;;;;;;;;2094428;28;20643;-57
2022/01/31 03:50:11;;;;;;;15.53;11.63;;;;;;;;;;2082935;28;20369;-56
2022/01/31 03:51:12;;;;;;;14.67;11.67;;;;;;;;;;2083520;28;20191;-53
2022/01/31 03:52:12;;;;;;;12.70;10.97;;;;;;;;;;2085043;28;21325;-58
2022/01/31 03:53:18;;;;;;;15.37;11.40;;;;;;;;;;2079374;28;20246;-57
2022/01/31 03:54:18;;;;;;;13.50;11.60;;;;;;;;;;2076731;28;20176;-52
2022/01/31 03:55:20;;;;;;;17.17;11.07;;;;;;;;;;2084348;28;20176;-56
2022/01/31 03:56:22;;;;;;;13.40;12.03;;;;;;;;;;2083780;28;20176;-56
2022/01/31 03:57:43;;;;;;;18.10;11.47;;;;;;;;;;2083448;28;20223;-48
2022/01/31 03:58:59;;;;;;;12.90;11.60;;;;;;;;;;2084577;28;20210;-49
2022/01/31 04:00:00;;;;;;;15.40;12.40;;;;;;;;;;2078331;28;20424;-52
2022/01/31 04:01:00;;;;;;;15.33;12.00;;;;;;;;;;2074114;28;20645;-54
2022/01/31 04:02:03;;;;;;;13.93;12.17;;;;;;;;;;2089704;28;20429;-53
2022/01/31 04:03:04;;;;;;;15.10;12.07;;;;;;;;;;2094840;28;20196;-55
2022/01/31 04:04:10;;;;;;;14.20;12.70;;;;;;;;;;2094838;28;20261;-55
2022/01/31 04:05:10;;;;;;;16.23;12.53;;;;;;;;;;2094052;28;20608;-55
2022/01/31 04:06:10;;;;;;;12.93;11.20;;;;;;;;;;2090587;28;20269;-53
2022/01/31 04:07:11;;;;;;;14.67;11.80;;;;;;;;;;2094179;28;20191;-57
2022/01/31 04:08:12;;;;;;;16.07;11.80;;;;;;;;;;2091382;28;20198;-51
2022/01/31 04:09:12;;;;;;;14.40;11.97;;;;;;;;;;2093947;28;20209;-54
2022/01/31 04:10:12;;;;;;;12.00;10.90;;;;;;;;;;2091042;28;20203;-54
2022/01/31 04:11:12;;;;;;;16.17;12.47;;;;;;;;;;2094462;28;20255;-56
2022/01/31 04:12:13;;;;;;;13.03;11.60;;;;;;;;;;2091654;28;20183;-50
2022/01/31 04:13:16;;;;;;;13.87;11.77;;;;;;;;;;2091948;28;20210;-53
2022/01/31 04:14:16;;;;;;;13.20;11.83;;;;;;;;;;2088835;28;20186;-55
2022/01/31 04:15:16;;;;;;;12.53;11.33;;;;;;;;;;2089853;28;20212;-53
2022/01/31 04:16:20;;;;;;;12.23;10.80;;;;;;;;;;2092973;28;20218;-56
2022/01/31 04:17:21;;;;;;;14.77;11.20;;;;;;;;;;2089386;28;20643;-54
2022/01/31 04:18:21;;;;;;;12.97;11.50;;;;;;;;;;2093828;28;20171;-52
2022/01/31 04:19:22;;;;;;;12.87;11.53;;;;;;;;;;2091459;28;20226;-50
2022/01/31 04:20:22;;;;;;;12.37;11.13;;;;;;;;;;2094146;28;20675;-54
2022/01/31 04:21:22;;;;;;;12.57;11.03;;;;;;;;;;2091828;28;20174;-52
2022/01/31 04:22:25;;;;;;;11.90;10.67;;;;;;;;;;2091355;28;20213;-54
2022/01/31 04:23:28;;;;;;;12.40;11.20;;;;;;;;;;2089797;28;20540;-50
2022/01/31 04:24:32;;;;;;;11.73;10.63;;;;;;;;;;2095310;28;20407;-51
2022/01/31 04:26:58;;;;;;;14.60;11.17;;;;;;;;;;2087953;28;20190;-52
2022/01/31 04:28:03;;;;;;;12.43;11.23;;;;;;;;;;2084764;28;20188;-58
2022/01/31 04:29:09;;;;;;;12.60;11.37;;;;;;;;;;2093252;28;20414;-52
2022/01/31 04:30:12;;;;;;;13.23;11.40;;;;;;;;;;2092237;28;20187;-53
2022/01/31 04:32:22;;;;;;;11.80;10.70;;;;;;;;;;2093715;28;20430;-52
2022/01/31 04:33:23;;;;;;;13.23;11.07;;;;;;;;;;2089157;28;20437;-48
2022/01/31 04:34:23;;;;;;;11.63;10.43;;;;;;;;;;2094178;28;20195;-54
2022/01/31 04:35:23;;;;;;;10.97;9.97;;;;;;;;;;2096713;28;20524;-56
2022/01/31 04:36:24;;;;;;;10.93;9.93;;;;;;;;;;2091981;28;20188;-55
2022/01/31 04:37:25;;;;;;;12.87;11.57;;;;;;;;;;2087624;28;20196;-52
2022/01/31 04:38:26;;;;;;;12.60;11.27;;;;;;;;;;2092491;28;20190;-56
2022/01/31 04:39:28;;;;;;;13.77;11.73;;;;;;;;;;2086510;28;20186;-53
2022/01/31 04:40:28;;;;;;;12.53;11.33;;;;;;;;;;2086633;28;20172;-54
2022/01/31 04:41:28;;;;;;;13.23;11.90;;;;;;;;;;2092537;28;20215;-52
2022/01/31 04:42:29;;;;;;;13.67;11.93;;;;;;;;;;2091137;28;20188;-50
2022/01/31 04:43:29;;;;;;;14.10;12.67;;;;;;;;;;2085494;28;20253;-55
2022/01/31 04:44:29;;;;;;;15.13;12.73;;;;;;;;;;2091825;28;20183;-51
2022/01/31 04:45:29;;;;;;;14.30;12.80;;;;;;;;;;2093547;28;20179;-54
2022/01/31 04:46:30;;;;;;;14.80;13.13;;;;;;;;;;2087790;28;20188;-51
2022/01/31 04:47:30;;;;;;;15.33;13.30;;;;;;;;;;2092507;28;20171;-55
2022/01/31 04:48:30;;;;;;;15.83;14.03;;;;;;;;;;2085546;28;20157;-56
2022/01/31 04:49:33;;;;;;;14.40;11.93;;;;;;;;;;2083423;28;20223;-54
2022/01/31 04:50:34;;;;;;;17.77;13.93;;;;;;;;;;2087265;28;20211;-54
2022/01/31 04:51:34;;;;;;;18.27;13.60;;;;;;;;;;2091923;28;20560;-52
2022/01/31 04:52:34;;;;;;;17.37;13.73;;;;;;;;;;2095349;28;20298;-56
2022/01/31 04:53:35;;;;;;;17.70;15.17;;;;;;;;;;2094736;28;20185;-53
2022/01/31 04:54:35;;;;;;;20.13;14.13;;;;;;;;;;2087316;28;20549;-55
2022/01/31 04:55:35;;;;;;;19.27;14.60;;;;;;;;;;2087504;28;20172;-54
2022/01/31 04:56:36;;;;;;;18.03;14.70;;;;;;;;;;2085668;28;20180;-57
2022/01/31 04:57:37;;;;;;;16.53;14.47;;;;;;;;;;2094243;28;20184;-58
2022/01/31 04:58:37;;;;;;;16.47;14.73;;;;;;;;;;2089000;28;20179;-56
2022/01/31 04:59:41;;;;;;;16.83;14.87;;;;;;;;;;2084470;28;20187;-57
2022/01/31 05:00:42;;;;;;;19.00;15.40;;;;;;;;;;2090778;28;20194;-56
2022/01/31 05:01:43;;;;;;;17.07;15.23;;;;;;;;;;2095062;28;20565;-53
2022/01/31 05:02:43;;;;;;;21.17;16.17;;;;;;;;;;2094978;28;20305;-57
2022/01/31 05:03:45;;;;;;;17.40;15.53;;;;;;;;;;2085162;28;20184;-55
2022/01/31 05:04:46;;;;;;;18.97;15.17;;;;;;;;;;2080673;28;20173;-56
2022/01/31 05:05:46;;;;;;;18.83;14.23;;;;;;;;;;2082631;28;20189;-57
2022/01/31 05:06:48;;;;;;;17.73;15.07;;;;;;;;;;2097985;28;20293;-55
2022/01/31 05:07:51;;;;;;;16.90;15.10;;;;;;;;;;2088638;28;20799;-50
2022/01/31 05:08:52;;;;;;;18.60;14.80;;;;;;;;;;2083872;28;20169;-57
2022/01/31 05:09:52;;;;;;;21.07;16.30;;;;;;;;;;2087740;28;20211;-54
2022/01/31 05:10:52;;;;;;;17.33;15.37;;;;;;;;;;2081773;28;20180;-53
2022/01/31 05:11:53;;;;;;;20.03;15.73;;;;;;;;;;2082157;28;20606;-55
2022/01/31 05:12:53;;;;;;;16.53;14.27;;;;;;;;;;2088845;28;20305;-56
2022/01/31 05:13:53;;;;;;;16.93;14.83;;;;;;;;;;2082634;28;20251;-58
2022/01/31 05:14:53;;;;;;;18.53;15.20;;;;;;;;;;2086273;28;20566;-56
2022/01/31 05:15:55;;;;;;;16.63;14.93;;;;;;;;;;2087898;28;20254;-53
2022/01/31 05:16:55;;;;;;;15.43;13.50;;;;;;;;;;2096780;28;20711;-57
2022/01/31 05:17:56;;;;;;;17.10;14.40;;;;;;;;;;2089786;28;20208;-55
2022/01/31 05:18:56;;;;;;;15.40;13.83;;;;;;;;;;2097002;28;20195;-55
2022/01/31 05:19:56;;;;;;;19.40;14.23;;;;;;;;;;2090234;28;20246;-56
2022/01/31 05:20:56;;;;;;;16.77;14.17;;;;;;;;;;2097027;28;20201;-52
2022/01/31 05:21:57;;;;;;;15.90;14.07;;;;;;;;;;2085519;28;20184;-54
2022/01/31 05:22:57;;;;;;;17.40;14.73;;;;;;;;;;2093839;28;20678;-50
2022/01/31 05:23:57;;;;;;;18.77;14.67;;;;;;;;;;2088203;28;20227;-56
2022/01/31 05:24:57;;;;;;;20.20;14.77;;;;;;;;;;2095494;28;20166;-57
2022/01/31 05:25:58;;;;;;;16.20;14.50;;;;;;;;;;2091107;28;20233;-52
2022/01/31 05:26:58;;;;;;;15.23;13.50;;;;;;;;;;2096213;28;20198;-56
2022/01/31 05:27:58;;;;;;;15.40;13.73;;;;;;;;;;2087952;28;20187;-56
2022/01/31 05:28:58;;;;;;;14.00;11.77;;;;;;;;;;2091240;28;20187;-58
2022/01/31 05:29:59;;;;;;;19.43;13.07;;;;;;;;;;2094064;28;20206;-58
2022/01/31 05:30:59;;;;;;;16.23;12.80;;;;;;;;;;2087605;28;20206;-56
2022/01/31 05:31:59;;;;;;;18.10;12.67;;;;;;;;;;2095283;28;20186;-55
2022/01/31 05:33:00;;;;;;;15.03;11.80;;;;;;;;;;2089476;28;20184;-56
2022/01/31 05:34:00;;;;;;;13.83;9.20;;;;;;;;;;2085859;28;20267;-54
2022/01/31 05:35:01;;;;;;;11.07;9.93;;;;;;;;;;2090420;28;20211;-51
2022/01/31 05:36:01;;;;;;;20.13;12.77;;;;;;;;;;2095021;28;20167;-57
2022/01/31 05:37:02;;;;;;;17.17;12.10;;;;;;;;;;2088273;28;20765;-51
2022/01/31 05:38:03;;;;;;;12.97;11.53;;;;;;;;;;2089585;28;20652;-55
2022/01/31 05:39:03;;;;;;;11.17;9.73;;;;;;;;;;2087063;28;22475;-57
2022/01/31 05:40:04;;;;;;;14.30;11.63;;;;;;;;;;2087561;28;20271;-57
2022/01/31 05:41:07;;;;;;;15.87;12.20;;;;;;;;;;2096861;28;20848;-58
2022/01/31 05:42:07;;;;;;;13.37;11.93;;;;;;;;;;2095605;28;20194;-60
2022/01/31 05:43:08;;;;;;;12.70;11.13;;;;;;;;;;2088059;28;20179;-57
2022/01/31 05:44:08;;;;;;;12.83;10.87;;;;;;;;;;2089063;28;20233;-55
2022/01/31 05:45:08;;;;;;;16.27;12.07;;;;;;;;;;2091816;28;20273;-55
2022/01/31 05:46:08;;;;;;;15.37;11.50;;;;;;;;;;2085140;28;20192;-56
2022/01/31 05:47:09;;;;;;;14.10;11.43;;;;;;;;;;2087132;28;20214;-51
2022/01/31 05:48:09;;;;;;;12.53;11.40;;;;;;;;;;2090128;28;20219;-58
2022/01/31 05:49:09;;;;;;;11.23;10.13;;;;;;;;;;2092731;28;20178;-57
2022/01/31 05:50:09;;;;;;;14.60;11.73;;;;;;;;;;2094782;28;20202;-57
2022/01/31 05:51:20;;;;;;;13.03;11.40;;;;;;;;;;2094013;28;20179;-59
2022/01/31 05:52:20;;;;;;;14.30;11.77;;;;;;;;;;2093569;28;20259;-58
2022/01/31 05:53:21;;;;;;;14.97;12.07;;;;;;;;;;2094687;28;20179;-58
2022/01/31 05:54:21;;;;;;;15.13;12.07;;;;;;;;;;2093496;28;20168;-55
2022/01/31 05:55:22;;;;;;;14.30;12.20;;;;;;;;;;2082907;28;20245;-57
2022/01/31 05:56:22;;;;;;;13.97;12.40;;;;;;;;;;2085805;28;20179;-59
2022/01/31 05:57:22;;;;;;;14.97;12.60;;;;;;;;;;2088772;28;20163;-59
2022/01/31 05:58:23;;;;;;;16.27;12.30;;;;;;;;;;2088920;28;20179;-55
2022/01/31 05:59:23;;;;;;;15.80;11.97;;;;;;;;;;2092737;28;20174;-53
2022/01/31 06:00:23;;;;;;;15.60;11.27;;;;;;;;;;2092243;28;20180;-57
2022/01/31 06:01:23;;;;;;;12.13;10.80;;;;;;;;;;2095228;28;20537;-53
2022/01/31 06:02:24;;;;;;;12.90;11.17;;;;;;;;;;2092034;28;20237;-61
2022/01/31 06:03:27;;;;;;;15.33;11.47;;;;;;;;;;2087067;28;20171;-61
2022/01/31 06:04:28;;;;;;;14.93;12.60;;;;;;;;;;2082749;28;20215;-59
2022/01/31 06:05:28;;;;;;;14.43;11.30;;;;;;;;;;2088520;28;20222;-61
2022/01/31 06:06:28;;;;;;;14.47;11.23;;;;;;;;;;2085197;28;20271;-59
2022/01/31 06:07:29;;;;;;;16.43;12.33;;;;;;;;;;2093474;28;20170;-55
2022/01/31 06:08:29;;;;;;;19.07;12.90;;;;;;;;;;2090314;28;20183;-58